sensor_id;sensor_type;location;lat;lon;timestamp;temperature;humidity
53752;DHT22;41095;53.090;6.692;2022-10-16T00:01:41;12.10;99.90
53752;DHT22;41095;53.090;6.692;2022-10-16T00:04:06;12.10;99.90
53752;DHT22;41095;53.090;6.692;2022-10-16T00:06:32;12.20;99.90
53752;DHT22;41095;53.090;6.692;2022-10-16T00:08:58;12.10;99.90
53752;DHT22;41095;53.090;6.692;2022-10-16T00:11:26;12.10;99.90
53752;DHT22;41095;53.090;6.692;2022-10-16T00:13:56;12.10;99.90
53752;DHT22;41095;53.090;6.692;2022-10-16T00:16:22;12.10;99.90
53752;DHT22;41095;53.090;6.692;2022-10-16T00:18:48;11.70;99.90
53752;DHT22;41095;53.090;6.692;2022-10-16T00:21:18;12.10;99.90
53752;DHT22;41095;53.090;6.692;2022-10-16T00:23:44;12.10;99.90
53752;DHT22;41095;53.090;6.692;2022-10-16T00:26:14;12.10;99.90
53752;DHT22;41095;53.090;6.692;2022-10-16T00:28:40;12.10;99.90
53752;DHT22;41095;53.090;6.692;2022-10-16T00:31:08;12.10;99.90
53752;DHT22;41095;53.090;6.692;2022-10-16T00:33:35;12.10;99.90
53752;DHT22;41095;53.090;6.692;2022-10-16T00:36:03;12.10;99.90
53752;DHT22;41095;53.090;6.692;2022-10-16T00:38:29;12.10;99.90
53752;DHT22;41095;53.090;6.692;2022-10-16T00:40:55;12.10;99.90
53752;DHT22;41095;53.090;6.692;2022-10-16T00:43:44;12.10;99.90
53752;DHT22;41095;53.090;6.692;2022-10-16T00:48:45;12.10;99.90
53752;DHT22;41095;53.090;6.692;2022-10-16T00:51:11;12.10;99.90
53752;DHT22;41095;53.090;6.692;2022-10-16T00:53:36;12.20;99.90
53752;DHT22;41095;53.090;6.692;2022-10-16T00:56:02;12.20;99.90
53752;DHT22;41095;53.090;6.692;2022-10-16T00:58:29;12.20;99.90
53752;DHT22;41095;53.090;6.692;2022-10-16T01:00:54;12.10;99.90
53752;DHT22;41095;53.090;6.692;2022-10-16T01:06:07;12.20;99.90
53752;DHT22;41095;53.090;6.692;2022-10-16T01:11:34;12.20;99.90
53752;DHT22;41095;53.090;6.692;2022-10-16T01:15:08;12.20;99.90
53752;DHT22;41095;53.090;6.692;2022-10-16T01:17:06;12.20;99.90
53752;DHT22;41095;53.090;6.692;2022-10-16T01:20:10;12.20;99.90
53752;DHT22;41095;53.090;6.692;2022-10-16T01:28:25;12.20;99.90
53752;DHT22;41095;53.090;6.692;2022-10-16T01:30:55;12.20;99.90
53752;DHT22;41095;53.090;6.692;2022-10-16T01:33:38;12.30;99.90
53752;DHT22;41095;53.090;6.692;2022-10-16T01:36:13;12.30;99.90
53752;DHT22;41095;53.090;6.692;2022-10-16T01:38:40;12.30;99.90
53752;DHT22;41095;53.090;6.692;2022-10-16T01:41:17;12.30;99.90
53752;DHT22;41095;53.090;6.692;2022-10-16T01:43:48;12.30;99.90
53752;DHT22;41095;53.090;6.692;2022-10-16T01:46:17;12.30;99.90
53752;DHT22;41095;53.090;6.692;2022-10-16T01:48:43;12.40;99.90
53752;DHT22;41095;53.090;6.692;2022-10-16T01:51:12;12.40;99.90
53752;DHT22;41095;53.090;6.692;2022-10-16T01:53:40;12.40;99.90
53752;DHT22;41095;53.090;6.692;2022-10-16T01:56:09;12.40;99.90
53752;DHT22;41095;53.090;6.692;2022-10-16T01:58:42;12.50;99.90
53752;DHT22;41095;53.090;6.692;2022-10-16T02:01:10;12.40;99.90
53752;DHT22;41095;53.090;6.692;2022-10-16T02:03:37;12.40;99.90
53752;DHT22;41095;53.090;6.692;2022-10-16T02:06:04;12.40;99.90
53752;DHT22;41095;53.090;6.692;2022-10-16T02:08:30;12.40;99.90
53752;DHT22;41095;53.090;6.692;2022-10-16T02:10:57;12.40;99.90
53752;DHT22;41095;53.090;6.692;2022-10-16T02:13:55;12.40;99.90
53752;DHT22;41095;53.090;6.692;2022-10-16T02:16:37;12.50;99.90
53752;DHT22;41095;53.090;6.692;2022-10-16T02:19:04;12.50;99.90
53752;DHT22;41095;53.090;6.692;2022-10-16T02:21:51;12.40;99.90
53752;DHT22;41095;53.090;6.692;2022-10-16T02:24:43;12.50;99.90
53752;DHT22;41095;53.090;6.692;2022-10-16T02:27:27;12.50;99.90
53752;DHT22;41095;53.090;6.692;2022-10-16T02:30:24;12.50;99.90
53752;DHT22;41095;53.090;6.692;2022-10-16T02:32:48;12.60;99.90
53752;DHT22;41095;53.090;6.692;2022-10-16T02:35:17;12.60;99.90
53752;DHT22;41095;53.090;6.692;2022-10-16T02:37:44;12.60;99.90
53752;DHT22;41095;53.090;6.692;2022-10-16T02:40:11;12.70;99.90
53752;DHT22;41095;53.090;6.692;2022-10-16T02:42:39;12.70;99.90
53752;DHT22;41095;53.090;6.692;2022-10-16T02:45:06;12.70;99.90
53752;DHT22;41095;53.090;6.692;2022-10-16T02:47:32;12.70;99.90
53752;DHT22;41095;53.090;6.692;2022-10-16T02:49:58;12.20;99.90
53752;DHT22;41095;53.090;6.692;2022-10-16T02:52:23;12.70;99.90
53752;DHT22;41095;53.090;6.692;2022-10-16T02:54:49;12.80;99.90
53752;DHT22;41095;53.090;6.692;2022-10-16T02:57:15;12.80;99.90
53752;DHT22;41095;53.090;6.692;2022-10-16T02:59:41;12.80;99.90
53752;DHT22;41095;53.090;6.692;2022-10-16T03:02:06;12.80;99.90
53752;DHT22;41095;53.090;6.692;2022-10-16T03:04:32;12.80;99.90
53752;DHT22;41095;53.090;6.692;2022-10-16T03:06:58;12.80;99.90
53752;DHT22;41095;53.090;6.692;2022-10-16T03:09:23;12.90;99.90
53752;DHT22;41095;53.090;6.692;2022-10-16T03:11:49;12.90;99.90
53752;DHT22;41095;53.090;6.692;2022-10-16T03:14:15;12.90;99.90
53752;DHT22;41095;53.090;6.692;2022-10-16T03:16:40;12.90;99.90
53752;DHT22;41095;53.090;6.692;2022-10-16T03:19:06;12.80;99.90
53752;DHT22;41095;53.090;6.692;2022-10-16T03:21:32;12.90;99.90
53752;DHT22;41095;53.090;6.692;2022-10-16T03:23:57;12.90;99.90
53752;DHT22;41095;53.090;6.692;2022-10-16T03:26:23;12.90;99.90
53752;DHT22;41095;53.090;6.692;2022-10-16T03:28:48;12.90;99.90
53752;DHT22;41095;53.090;6.692;2022-10-16T03:31:14;12.80;99.90
53752;DHT22;41095;53.090;6.692;2022-10-16T03:33:40;12.80;99.90
53752;DHT22;41095;53.090;6.692;2022-10-16T03:36:06;12.80;99.90
53752;DHT22;41095;53.090;6.692;2022-10-16T03:38:32;12.80;99.90
53752;DHT22;41095;53.090;6.692;2022-10-16T03:40:58;12.80;99.90
53752;DHT22;41095;53.090;6.692;2022-10-16T03:43:23;12.80;99.90
53752;DHT22;41095;53.090;6.692;2022-10-16T03:45:52;12.80;99.90
53752;DHT22;41095;53.090;6.692;2022-10-16T03:48:19;12.80;99.90
53752;DHT22;41095;53.090;6.692;2022-10-16T03:50:44;12.70;99.90
53752;DHT22;41095;53.090;6.692;2022-10-16T03:53:11;12.80;99.90
53752;DHT22;41095;53.090;6.692;2022-10-16T03:55:37;12.70;99.90
53752;DHT22;41095;53.090;6.692;2022-10-16T03:58:03;12.70;99.90
53752;DHT22;41095;53.090;6.692;2022-10-16T04:00:28;12.70;99.90
53752;DHT22;41095;53.090;6.692;2022-10-16T04:02:54;12.70;99.90
53752;DHT22;41095;53.090;6.692;2022-10-16T04:05:20;12.70;99.90
53752;DHT22;41095;53.090;6.692;2022-10-16T04:07:46;12.60;99.90
53752;DHT22;41095;53.090;6.692;2022-10-16T04:10:11;12.60;99.90
53752;DHT22;41095;53.090;6.692;2022-10-16T04:12:37;12.60;99.90
53752;DHT22;41095;53.090;6.692;2022-10-16T04:15:03;12.60;99.90
53752;DHT22;41095;53.090;6.692;2022-10-16T04:17:28;12.60;99.90
53752;DHT22;41095;53.090;6.692;2022-10-16T04:19:54;12.60;99.90
53752;DHT22;41095;53.090;6.692;2022-10-16T04:22:20;12.50;99.90
53752;DHT22;41095;53.090;6.692;2022-10-16T04:24:45;12.60;99.90
53752;DHT22;41095;53.090;6.692;2022-10-16T04:27:11;12.50;99.90
53752;DHT22;41095;53.090;6.692;2022-10-16T04:29:36;12.60;99.90
53752;DHT22;41095;53.090;6.692;2022-10-16T04:32:02;12.60;99.90
53752;DHT22;41095;53.090;6.692;2022-10-16T04:34:28;12.60;99.90
53752;DHT22;41095;53.090;6.692;2022-10-16T04:36:54;12.60;99.90
53752;DHT22;41095;53.090;6.692;2022-10-16T04:39:20;12.60;99.90
53752;DHT22;41095;53.090;6.692;2022-10-16T04:41:45;12.60;99.90
53752;DHT22;41095;53.090;6.692;2022-10-16T04:44:11;12.50;99.90
53752;DHT22;41095;53.090;6.692;2022-10-16T04:46:36;12.50;99.90
53752;DHT22;41095;53.090;6.692;2022-10-16T04:49:02;12.50;99.90
53752;DHT22;41095;53.090;6.692;2022-10-16T04:51:28;12.50;99.90
53752;DHT22;41095;53.090;6.692;2022-10-16T04:53:54;12.50;99.90
53752;DHT22;41095;53.090;6.692;2022-10-16T04:56:20;12.50;99.90
53752;DHT22;41095;53.090;6.692;2022-10-16T04:58:47;12.60;99.90
53752;DHT22;41095;53.090;6.692;2022-10-16T05:01:13;12.60;99.90
53752;DHT22;41095;53.090;6.692;2022-10-16T05:03:39;12.60;99.90
53752;DHT22;41095;53.090;6.692;2022-10-16T05:06:07;12.70;99.90
53752;DHT22;41095;53.090;6.692;2022-10-16T05:08:33;12.70;99.90
53752;DHT22;41095;53.090;6.692;2022-10-16T05:10:59;12.70;99.90
53752;DHT22;41095;53.090;6.692;2022-10-16T05:13:25;12.70;99.90
53752;DHT22;41095;53.090;6.692;2022-10-16T05:15:51;12.70;99.90
53752;DHT22;41095;53.090;6.692;2022-10-16T05:18:17;12.80;99.90
53752;DHT22;41095;53.090;6.692;2022-10-16T05:20:42;12.80;99.90
53752;DHT22;41095;53.090;6.692;2022-10-16T05:23:08;12.80;99.90
53752;DHT22;41095;53.090;6.692;2022-10-16T05:25:36;12.80;99.90
53752;DHT22;41095;53.090;6.692;2022-10-16T05:28:02;12.80;99.90
53752;DHT22;41095;53.090;6.692;2022-10-16T05:30:27;12.80;99.90
53752;DHT22;41095;53.090;6.692;2022-10-16T05:32:53;12.80;99.90
53752;DHT22;41095;53.090;6.692;2022-10-16T05:35:19;12.80;99.90
53752;DHT22;41095;53.090;6.692;2022-10-16T05:37:46;12.90;99.90
53752;DHT22;41095;53.090;6.692;2022-10-16T05:40:12;12.80;99.90
53752;DHT22;41095;53.090;6.692;2022-10-16T05:42:39;12.90;99.90
53752;DHT22;41095;53.090;6.692;2022-10-16T05:45:06;12.90;99.90
53752;DHT22;41095;53.090;6.692;2022-10-16T05:47:32;12.90;99.90
53752;DHT22;41095;53.090;6.692;2022-10-16T05:49:57;12.90;99.90
53752;DHT22;41095;53.090;6.692;2022-10-16T05:52:23;12.90;99.90
53752;DHT22;41095;53.090;6.692;2022-10-16T05:54:49;12.90;99.90
53752;DHT22;41095;53.090;6.692;2022-10-16T05:57:15;12.90;99.90
53752;DHT22;41095;53.090;6.692;2022-10-16T05:59:40;12.90;99.90
53752;DHT22;41095;53.090;6.692;2022-10-16T06:02:11;12.90;99.90
53752;DHT22;41095;53.090;6.692;2022-10-16T06:04:37;12.90;99.90
53752;DHT22;41095;53.090;6.692;2022-10-16T06:07:03;12.90;99.90
53752;DHT22;41095;53.090;6.692;2022-10-16T06:09:29;12.90;99.90
53752;DHT22;41095;53.090;6.692;2022-10-16T06:11:54;12.90;99.90
53752;DHT22;41095;53.090;6.692;2022-10-16T06:14:20;12.90;99.90
53752;DHT22;41095;53.090;6.692;2022-10-16T06:16:46;12.90;99.90
53752;DHT22;41095;53.090;6.692;2022-10-16T06:19:12;12.90;99.90
53752;DHT22;41095;53.090;6.692;2022-10-16T06:21:37;12.90;99.90
53752;DHT22;41095;53.090;6.692;2022-10-16T06:24:03;12.90;99.90
53752;DHT22;41095;53.090;6.692;2022-10-16T06:26:31;12.90;99.90
53752;DHT22;41095;53.090;6.692;2022-10-16T06:28:58;12.90;99.90
53752;DHT22;41095;53.090;6.692;2022-10-16T06:31:24;13.00;99.90
53752;DHT22;41095;53.090;6.692;2022-10-16T06:33:57;13.00;99.90
53752;DHT22;41095;53.090;6.692;2022-10-16T06:36:23;13.00;99.90
53752;DHT22;41095;53.090;6.692;2022-10-16T06:38:49;13.00;99.90
53752;DHT22;41095;53.090;6.692;2022-10-16T06:41:18;13.10;99.90
53752;DHT22;41095;53.090;6.692;2022-10-16T06:43:44;13.10;99.90
53752;DHT22;41095;53.090;6.692;2022-10-16T06:46:15;13.10;99.90
53752;DHT22;41095;53.090;6.692;2022-10-16T06:48:41;13.10;99.90
53752;DHT22;41095;53.090;6.692;2022-10-16T06:51:12;13.20;99.90
53752;DHT22;41095;53.090;6.692;2022-10-16T06:53:42;13.20;99.90
53752;DHT22;41095;53.090;6.692;2022-10-16T06:56:09;13.30;99.90
53752;DHT22;41095;53.090;6.692;2022-10-16T06:58:35;13.30;99.90
53752;DHT22;41095;53.090;6.692;2022-10-16T07:01:01;13.30;99.90
53752;DHT22;41095;53.090;6.692;2022-10-16T07:03:26;13.40;99.90
53752;DHT22;41095;53.090;6.692;2022-10-16T07:05:52;13.40;99.90
53752;DHT22;41095;53.090;6.692;2022-10-16T07:08:18;13.50;99.90
53752;DHT22;41095;53.090;6.692;2022-10-16T07:10:43;13.50;99.90
53752;DHT22;41095;53.090;6.692;2022-10-16T07:13:09;13.60;99.90
53752;DHT22;41095;53.090;6.692;2022-10-16T07:15:38;13.60;99.90
53752;DHT22;41095;53.090;6.692;2022-10-16T07:18:04;13.60;99.90
53752;DHT22;41095;53.090;6.692;2022-10-16T07:20:30;13.70;99.90
53752;DHT22;41095;53.090;6.692;2022-10-16T07:22:56;13.80;99.90
53752;DHT22;41095;53.090;6.692;2022-10-16T07:25:21;13.80;99.90
53752;DHT22;41095;53.090;6.692;2022-10-16T07:27:49;13.90;99.90
53752;DHT22;41095;53.090;6.692;2022-10-16T07:30:15;13.90;99.90
53752;DHT22;41095;53.090;6.692;2022-10-16T07:32:41;14.10;99.90
53752;DHT22;41095;53.090;6.692;2022-10-16T07:35:07;14.10;99.90
53752;DHT22;41095;53.090;6.692;2022-10-16T07:37:33;14.20;99.90
53752;DHT22;41095;53.090;6.692;2022-10-16T07:39:58;14.20;99.90
53752;DHT22;41095;53.090;6.692;2022-10-16T07:42:24;14.20;99.90
53752;DHT22;41095;53.090;6.692;2022-10-16T07:44:49;14.20;99.90
53752;DHT22;41095;53.090;6.692;2022-10-16T07:47:15;14.10;99.90
53752;DHT22;41095;53.090;6.692;2022-10-16T07:49:41;14.10;99.90
53752;DHT22;41095;53.090;6.692;2022-10-16T07:52:07;14.10;99.90
53752;DHT22;41095;53.090;6.692;2022-10-16T07:54:32;14.10;99.90
53752;DHT22;41095;53.090;6.692;2022-10-16T07:56:58;14.20;99.90
53752;DHT22;41095;53.090;6.692;2022-10-16T07:59:24;14.20;99.90
53752;DHT22;41095;53.090;6.692;2022-10-16T08:01:49;14.30;99.90
53752;DHT22;41095;53.090;6.692;2022-10-16T08:04:15;14.40;99.90
53752;DHT22;41095;53.090;6.692;2022-10-16T08:06:41;14.30;99.90
53752;DHT22;41095;53.090;6.692;2022-10-16T08:09:08;14.40;99.90
53752;DHT22;41095;53.090;6.692;2022-10-16T08:11:34;14.40;99.90
53752;DHT22;41095;53.090;6.692;2022-10-16T08:14:00;14.50;99.90
53752;DHT22;41095;53.090;6.692;2022-10-16T08:16:25;14.50;99.90
53752;DHT22;41095;53.090;6.692;2022-10-16T08:18:51;14.60;99.90
53752;DHT22;41095;53.090;6.692;2022-10-16T08:21:20;14.60;99.90
53752;DHT22;41095;53.090;6.692;2022-10-16T08:23:49;14.70;99.90
53752;DHT22;41095;53.090;6.692;2022-10-16T08:26:15;14.70;99.90
53752;DHT22;41095;53.090;6.692;2022-10-16T08:28:40;14.80;99.90
53752;DHT22;41095;53.090;6.692;2022-10-16T08:31:11;14.90;99.90
53752;DHT22;41095;53.090;6.692;2022-10-16T08:33:38;14.90;99.90
53752;DHT22;41095;53.090;6.692;2022-10-16T08:36:05;14.90;99.90
53752;DHT22;41095;53.090;6.692;2022-10-16T08:38:32;14.90;99.90
53752;DHT22;41095;53.090;6.692;2022-10-16T08:48:54;15.10;99.90
53752;DHT22;41095;53.090;6.692;2022-10-16T08:51:31;15.00;99.90
53752;DHT22;41095;53.090;6.692;2022-10-16T08:54:01;15.10;99.90
53752;DHT22;41095;53.090;6.692;2022-10-16T08:56:28;15.10;99.90
53752;DHT22;41095;53.090;6.692;2022-10-16T08:58:54;15.30;99.90
53752;DHT22;41095;53.090;6.692;2022-10-16T09:01:22;15.30;99.90
53752;DHT22;41095;53.090;6.692;2022-10-16T09:12:22;15.60;99.90
53752;DHT22;41095;53.090;6.692;2022-10-16T09:22:39;16.10;99.90
53752;DHT22;41095;53.090;6.692;2022-10-16T09:25:17;16.00;99.90
53752;DHT22;41095;53.090;6.692;2022-10-16T09:27:46;16.00;99.90
53752;DHT22;41095;53.090;6.692;2022-10-16T09:30:13;16.20;99.90
53752;DHT22;41095;53.090;6.692;2022-10-16T09:32:40;16.30;99.90
53752;DHT22;41095;53.090;6.692;2022-10-16T09:35:20;16.30;99.90
53752;DHT22;41095;53.090;6.692;2022-10-16T09:37:49;16.50;99.90
53752;DHT22;41095;53.090;6.692;2022-10-16T09:40:36;16.60;99.90
53752;DHT22;41095;53.090;6.692;2022-10-16T09:46:00;16.70;99.90
53752;DHT22;41095;53.090;6.692;2022-10-16T09:48:37;16.80;99.90
53752;DHT22;41095;53.090;6.692;2022-10-16T09:51:05;16.90;99.90
53752;DHT22;41095;53.090;6.692;2022-10-16T09:53:42;17.20;99.90
53752;DHT22;41095;53.090;6.692;2022-10-16T09:56:11;17.30;99.90
53752;DHT22;41095;53.090;6.692;2022-10-16T09:58:42;17.70;99.90
53752;DHT22;41095;53.090;6.692;2022-10-16T10:01:13;17.80;99.90
53752;DHT22;41095;53.090;6.692;2022-10-16T10:03:41;18.40;99.90
53752;DHT22;41095;53.090;6.692;2022-10-16T10:08:58;18.50;99.90
53752;DHT22;41095;53.090;6.692;2022-10-16T10:11:37;18.60;99.90
53752;DHT22;41095;53.090;6.692;2022-10-16T10:14:13;18.40;99.90
53752;DHT22;41095;53.090;6.692;2022-10-16T10:16:40;18.90;99.90
53752;DHT22;41095;53.090;6.692;2022-10-16T10:19:14;20.30;99.90
53752;DHT22;41095;53.090;6.692;2022-10-16T10:21:40;20.80;99.90
53752;DHT22;41095;53.090;6.692;2022-10-16T10:24:10;20.70;99.90
53752;DHT22;41095;53.090;6.692;2022-10-16T10:26:37;20.00;99.90
53752;DHT22;41095;53.090;6.692;2022-10-16T10:29:20;19.20;99.90
53752;DHT22;41095;53.090;6.692;2022-10-16T10:34:52;18.40;99.90
53752;DHT22;41095;53.090;6.692;2022-10-16T10:37:45;18.20;99.90
53752;DHT22;41095;53.090;6.692;2022-10-16T10:40:29;17.90;99.90
53752;DHT22;41095;53.090;6.692;2022-10-16T10:45:47;17.70;99.90
53752;DHT22;41095;53.090;6.692;2022-10-16T10:48:34;17.70;99.90
53752;DHT22;41095;53.090;6.692;2022-10-16T10:57:00;17.40;99.90
53752;DHT22;41095;53.090;6.692;2022-10-16T11:07:33;17.40;99.90
53752;DHT22;41095;53.090;6.692;2022-10-16T11:10:22;17.40;99.90
53752;DHT22;41095;53.090;6.692;2022-10-16T11:12:52;17.40;99.90
53752;DHT22;41095;53.090;6.692;2022-10-16T11:15:23;17.40;99.90
53752;DHT22;41095;53.090;6.692;2022-10-16T11:18:29;17.40;99.90
53752;DHT22;41095;53.090;6.692;2022-10-16T11:21:02;17.20;99.90
53752;DHT22;41095;53.090;6.692;2022-10-16T11:23:48;17.20;99.90
53752;DHT22;41095;53.090;6.692;2022-10-16T11:26:35;17.10;99.90
53752;DHT22;41095;53.090;6.692;2022-10-16T11:29:12;17.20;99.90
53752;DHT22;41095;53.090;6.692;2022-10-16T11:31:50;17.30;99.90
53752;DHT22;41095;53.090;6.692;2022-10-16T11:34:35;17.30;99.90
53752;DHT22;41095;53.090;6.692;2022-10-16T11:37:11;17.50;99.90
53752;DHT22;41095;53.090;6.692;2022-10-16T11:39:38;17.60;99.90
53752;DHT22;41095;53.090;6.692;2022-10-16T11:42:11;17.70;99.90
53752;DHT22;41095;53.090;6.692;2022-10-16T11:47:34;17.70;99.90
53752;DHT22;41095;53.090;6.692;2022-10-16T11:52:46;17.80;99.90
53752;DHT22;41095;53.090;6.692;2022-10-16T11:55:20;17.90;99.90
53752;DHT22;41095;53.090;6.692;2022-10-16T11:57:54;18.00;99.90
53752;DHT22;41095;53.090;6.692;2022-10-16T12:00:23;18.00;99.90
53752;DHT22;41095;53.090;6.692;2022-10-16T12:03:05;17.90;99.90
53752;DHT22;41095;53.090;6.692;2022-10-16T12:08:21;18.00;99.90
53752;DHT22;41095;53.090;6.692;2022-10-16T12:10:48;18.00;99.90
53752;DHT22;41095;53.090;6.692;2022-10-16T12:13:46;18.10;99.90
53752;DHT22;41095;53.090;6.692;2022-10-16T12:18:44;18.20;99.90
53752;DHT22;41095;53.090;6.692;2022-10-16T12:21:10;18.30;99.90
53752;DHT22;41095;53.090;6.692;2022-10-16T12:26:12;18.40;99.90
53752;DHT22;41095;53.090;6.692;2022-10-16T12:28:38;18.50;99.90
53752;DHT22;41095;53.090;6.692;2022-10-16T12:31:06;18.50;99.90
53752;DHT22;41095;53.090;6.692;2022-10-16T12:33:42;18.50;99.90
53752;DHT22;41095;53.090;6.692;2022-10-16T12:36:34;18.50;99.90
53752;DHT22;41095;53.090;6.692;2022-10-16T12:39:01;18.60;99.90
53752;DHT22;41095;53.090;6.692;2022-10-16T12:41:33;18.70;99.90
53752;DHT22;41095;53.090;6.692;2022-10-16T12:43:59;18.70;99.30
53752;DHT22;41095;53.090;6.692;2022-10-16T12:51:40;18.50;98.50
53752;DHT22;41095;53.090;6.692;2022-10-16T12:54:27;18.60;99.90
53752;DHT22;41095;53.090;6.692;2022-10-16T13:11:25;18.90;99.90
53752;DHT22;41095;53.090;6.692;2022-10-16T13:24:42;18.80;99.90
53752;DHT22;41095;53.090;6.692;2022-10-16T13:29:52;18.60;99.90
53752;DHT22;41095;53.090;6.692;2022-10-16T13:32:21;18.60;99.90
53752;DHT22;41095;53.090;6.692;2022-10-16T13:34:48;18.70;99.90
53752;DHT22;41095;53.090;6.692;2022-10-16T13:37:22;18.70;99.90
53752;DHT22;41095;53.090;6.692;2022-10-16T13:39:48;18.70;99.60
53752;DHT22;41095;53.090;6.692;2022-10-16T13:42:27;18.70;99.90
53752;DHT22;41095;53.090;6.692;2022-10-16T13:44:55;18.70;99.90
53752;DHT22;41095;53.090;6.692;2022-10-16T13:47:26;18.70;99.90
53752;DHT22;41095;53.090;6.692;2022-10-16T13:50:00;18.70;99.90
53752;DHT22;41095;53.090;6.692;2022-10-16T13:52:26;18.70;99.60
53752;DHT22;41095;53.090;6.692;2022-10-16T13:54:52;18.60;99.90
53752;DHT22;41095;53.090;6.692;2022-10-16T13:57:18;18.60;99.90
53752;DHT22;41095;53.090;6.692;2022-10-16T13:59:47;18.50;99.90
53752;DHT22;41095;53.090;6.692;2022-10-16T14:02:22;18.40;99.90
53752;DHT22;41095;53.090;6.692;2022-10-16T14:04:50;18.30;96.70
53752;DHT22;41095;53.090;6.692;2022-10-16T14:07:30;18.20;99.90
53752;DHT22;41095;53.090;6.692;2022-10-16T14:10:05;18.00;97.20
53752;DHT22;41095;53.090;6.692;2022-10-16T14:12:31;18.00;98.30
53752;DHT22;41095;53.090;6.692;2022-10-16T14:14:59;18.00;99.90
53752;DHT22;41095;53.090;6.692;2022-10-16T14:17:28;18.00;99.90
53752;DHT22;41095;53.090;6.692;2022-10-16T14:19:57;17.90;99.90
53752;DHT22;41095;53.090;6.692;2022-10-16T14:22:31;17.80;99.70
53752;DHT22;41095;53.090;6.692;2022-10-16T14:24:58;17.80;99.90
53752;DHT22;41095;53.090;6.692;2022-10-16T14:27:35;17.70;99.90
53752;DHT22;41095;53.090;6.692;2022-10-16T14:32:34;17.60;99.90
53752;DHT22;41095;53.090;6.692;2022-10-16T14:35:00;17.50;99.30
53752;DHT22;41095;53.090;6.692;2022-10-16T14:37:29;17.40;99.90
53752;DHT22;41095;53.090;6.692;2022-10-16T14:39:56;17.30;99.90
53752;DHT22;41095;53.090;6.692;2022-10-16T14:42:24;17.20;99.90
53752;DHT22;41095;53.090;6.692;2022-10-16T14:44:51;17.10;99.90
53752;DHT22;41095;53.090;6.692;2022-10-16T14:47:20;17.00;99.90
53752;DHT22;41095;53.090;6.692;2022-10-16T14:49:50;17.00;99.90
53752;DHT22;41095;53.090;6.692;2022-10-16T14:52:16;17.00;99.90
53752;DHT22;41095;53.090;6.692;2022-10-16T14:54:42;16.90;99.90
53752;DHT22;41095;53.090;6.692;2022-10-16T14:57:26;16.80;99.90
53752;DHT22;41095;53.090;6.692;2022-10-16T14:59:52;16.70;99.90
53752;DHT22;41095;53.090;6.692;2022-10-16T15:04:48;16.70;99.90
53752;DHT22;41095;53.090;6.692;2022-10-16T15:07:14;16.60;99.90
53752;DHT22;41095;53.090;6.692;2022-10-16T15:09:40;16.60;99.90
53752;DHT22;41095;53.090;6.692;2022-10-16T15:12:06;16.60;99.90
53752;DHT22;41095;53.090;6.692;2022-10-16T15:14:31;16.60;99.90
53752;DHT22;41095;53.090;6.692;2022-10-16T15:16:57;16.60;99.90
53752;DHT22;41095;53.090;6.692;2022-10-16T15:19:23;16.60;99.90
53752;DHT22;41095;53.090;6.692;2022-10-16T15:21:49;16.50;99.90
53752;DHT22;41095;53.090;6.692;2022-10-16T15:24:15;16.50;99.90
53752;DHT22;41095;53.090;6.692;2022-10-16T15:26:41;16.50;99.90
53752;DHT22;41095;53.090;6.692;2022-10-16T15:29:07;16.40;99.90
53752;DHT22;41095;53.090;6.692;2022-10-16T15:31:35;16.40;99.90
53752;DHT22;41095;53.090;6.692;2022-10-16T15:34:01;16.40;99.90
53752;DHT22;41095;53.090;6.692;2022-10-16T15:36:33;16.40;99.90
53752;DHT22;41095;53.090;6.692;2022-10-16T15:39:02;16.40;99.90
53752;DHT22;41095;53.090;6.692;2022-10-16T15:41:28;16.30;99.90
53752;DHT22;41095;53.090;6.692;2022-10-16T15:43:53;16.50;99.90
53752;DHT22;41095;53.090;6.692;2022-10-16T15:46:21;16.20;99.90
53752;DHT22;41095;53.090;6.692;2022-10-16T15:48:48;16.20;99.90
53752;DHT22;41095;53.090;6.692;2022-10-16T15:51:15;16.20;99.90
53752;DHT22;41095;53.090;6.692;2022-10-16T15:53:41;16.10;99.90
53752;DHT22;41095;53.090;6.692;2022-10-16T15:56:08;16.00;99.90
53752;DHT22;41095;53.090;6.692;2022-10-16T15:58:35;16.00;99.90
53752;DHT22;41095;53.090;6.692;2022-10-16T16:01:01;16.00;99.90
53752;DHT22;41095;53.090;6.692;2022-10-16T16:03:28;15.90;99.90
53752;DHT22;41095;53.090;6.692;2022-10-16T16:05:54;15.90;99.90
53752;DHT22;41095;53.090;6.692;2022-10-16T16:08:20;15.80;99.90
53752;DHT22;41095;53.090;6.692;2022-10-16T16:10:56;15.80;99.90
53752;DHT22;41095;53.090;6.692;2022-10-16T16:13:22;15.80;99.90
53752;DHT22;41095;53.090;6.692;2022-10-16T16:15:47;15.80;99.90
53752;DHT22;41095;53.090;6.692;2022-10-16T16:18:13;15.70;99.90
53752;DHT22;41095;53.090;6.692;2022-10-16T16:20:39;15.70;99.90
53752;DHT22;41095;53.090;6.692;2022-10-16T16:23:04;15.60;99.90
53752;DHT22;41095;53.090;6.692;2022-10-16T16:25:30;15.60;99.90
53752;DHT22;41095;53.090;6.692;2022-10-16T16:27:56;15.50;99.90
53752;DHT22;41095;53.090;6.692;2022-10-16T16:30:22;15.50;99.90
53752;DHT22;41095;53.090;6.692;2022-10-16T16:32:47;15.30;99.90
53752;DHT22;41095;53.090;6.692;2022-10-16T16:35:13;15.20;99.90
53752;DHT22;41095;53.090;6.692;2022-10-16T16:37:39;15.20;99.90
53752;DHT22;41095;53.090;6.692;2022-10-16T16:40:05;15.10;99.90
53752;DHT22;41095;53.090;6.692;2022-10-16T16:42:30;15.00;99.90
53752;DHT22;41095;53.090;6.692;2022-10-16T16:44:56;15.00;99.90
53752;DHT22;41095;53.090;6.692;2022-10-16T16:47:22;14.90;99.90
53752;DHT22;41095;53.090;6.692;2022-10-16T16:49:47;14.80;99.90
53752;DHT22;41095;53.090;6.692;2022-10-16T16:52:14;14.70;99.90
53752;DHT22;41095;53.090;6.692;2022-10-16T16:54:39;14.70;99.90
53752;DHT22;41095;53.090;6.692;2022-10-16T16:57:05;14.70;99.90
53752;DHT22;41095;53.090;6.692;2022-10-16T16:59:31;14.60;99.90
53752;DHT22;41095;53.090;6.692;2022-10-16T17:02:00;14.50;99.90
53752;DHT22;41095;53.090;6.692;2022-10-16T17:04:26;14.50;99.90
53752;DHT22;41095;53.090;6.692;2022-10-16T17:06:55;14.50;99.90
53752;DHT22;41095;53.090;6.692;2022-10-16T17:09:21;14.40;99.90
53752;DHT22;41095;53.090;6.692;2022-10-16T17:11:47;14.40;99.90
53752;DHT22;41095;53.090;6.692;2022-10-16T17:14:14;14.30;99.90
53752;DHT22;41095;53.090;6.692;2022-10-16T17:16:40;14.30;99.90
53752;DHT22;41095;53.090;6.692;2022-10-16T17:19:12;14.20;99.90
53752;DHT22;41095;53.090;6.692;2022-10-16T17:21:38;14.10;99.90
53752;DHT22;41095;53.090;6.692;2022-10-16T17:24:04;14.00;99.90
53752;DHT22;41095;53.090;6.692;2022-10-16T17:26:30;13.90;99.90
53752;DHT22;41095;53.090;6.692;2022-10-16T17:28:58;13.90;99.90
53752;DHT22;41095;53.090;6.692;2022-10-16T17:31:30;13.80;99.90
53752;DHT22;41095;53.090;6.692;2022-10-16T17:33:58;13.80;99.90
53752;DHT22;41095;53.090;6.692;2022-10-16T17:36:25;13.70;99.90